Time;durP1;ratioP1;P1;durP2;ratioP2;P2;SDS_P1;SDS_P2;PMS_P1;PMS_P2;Temp;Humidity;BMP_temperature;BMP_pressure;BME280_temperature;BME280_humidity;BME280_pressure;Samples;Min_cycle;Max_cycle;Signal;HPM_P1;HPM_P2
2023/01/21 00:01:00;;;;;;;31.52;12.75;;;;;;;3.31;60.08;102490.84;4960385;28;118180;-70
2023/01/21 00:03:28;;;;;;;32.40;13.30;;;;;;;3.30;59.95;102499.56;4961365;28;118237;-70
2023/01/21 00:05:57;;;;;;;29.63;12.85;;;;;;;3.33;59.77;102495.19;4964463;28;123662;-70
2023/01/21 00:08:25;;;;;;;29.48;12.55;;;;;;;3.31;60.20;102501.31;4963951;28;123985;-70
2023/01/21 00:10:52;;;;;;;36.10;13.10;;;;;;;3.31;60.00;102505.66;4964081;28;120402;-70
2023/01/21 00:13:20;;;;;;;35.45;13.10;;;;;;;3.33;59.84;102505.69;4975454;28;119860;-69
2023/01/21 00:15:47;;;;;;;34.03;13.50;;;;;;;3.32;59.87;102507.44;4981430;28;125877;-70
2023/01/21 00:18:14;;;;;;;31.23;13.30;;;;;;;3.31;59.91;102511.78;4975001;28;124633;-70
2023/01/21 00:20:41;;;;;;;33.63;13.30;;;;;;;3.30;60.05;102515.25;4965108;28;119218;-70
2023/01/21 00:23:09;;;;;;;36.20;13.27;;;;;;;3.31;59.89;102517.03;4948540;28;117364;-69
2023/01/21 00:25:36;;;;;;;31.52;13.95;;;;;;;3.33;59.96;102513.53;4964701;28;123818;-70
2023/01/21 00:28:04;;;;;;;33.95;14.32;;;;;;;3.33;59.98;102518.78;4959887;28;122946;-69
2023/01/21 00:30:31;;;;;;;31.80;13.68;;;;;;;3.33;60.20;102518.78;4959799;28;119959;-70
2023/01/21 00:32:58;;;;;;;34.28;13.07;;;;;;;3.34;60.13;102520.53;4944956;28;118673;-70
2023/01/21 00:35:25;;;;;;;33.70;15.13;;;;;;;3.35;59.88;102517.03;4954011;28;124265;-69
2023/01/21 00:37:52;;;;;;;36.88;13.98;;;;;;;3.36;60.08;102517.06;4957787;28;124842;-69
2023/01/21 00:40:20;;;;;;;33.88;14.40;;;;;;;3.34;60.04;102515.31;4962870;28;119847;-70
2023/01/21 00:42:47;;;;;;;33.03;14.10;;;;;;;3.33;59.84;102518.78;4957674;28;119776;-70
2023/01/21 00:45:14;;;;;;;30.73;13.68;;;;;;;3.33;59.94;102524.00;4965519;28;123989;-69
2023/01/21 00:47:41;;;;;;;36.58;13.35;;;;;;;3.31;59.82;102527.50;4955394;28;124144;-69
2023/01/21 00:50:09;;;;;;;39.10;14.30;;;;;;;3.33;59.87;102529.25;4956478;28;119695;-70
2023/01/21 00:52:37;;;;;;;37.72;14.45;;;;;;;3.33;59.99;102534.47;4964283;28;119111;-70
2023/01/21 00:55:04;;;;;;;36.35;14.07;;;;;;;3.31;59.91;102535.38;4961571;28;123561;-69
2023/01/21 00:57:32;;;;;;;36.95;13.85;;;;;;;3.29;59.79;102542.28;4955150;28;123938;-70
2023/01/21 00:59:59;;;;;;;36.60;14.10;;;;;;;3.26;59.72;102544.88;4956267;28;120074;-70
2023/01/21 01:02:26;;;;;;;38.63;14.85;;;;;;;3.25;59.61;102553.59;4965049;28;119651;-69
2023/01/21 01:04:53;;;;;;;39.17;15.43;;;;;;;3.24;59.80;102551.84;4961389;28;124256;-68
2023/01/21 01:07:20;;;;;;;38.88;15.50;;;;;;;3.23;59.58;102560.56;4962849;28;123654;-70
2023/01/21 01:09:47;;;;;;;40.53;14.77;;;;;;;3.19;59.72;102564.00;4938752;28;117973;-69
2023/01/21 01:12:14;;;;;;;39.45;15.07;;;;;;;3.19;59.77;102574.47;4960784;28;119106;-69
2023/01/21 01:14:42;;;;;;;40.38;15.30;;;;;;;3.19;59.89;102578.81;4963627;28;124744;-69
2023/01/21 01:17:09;;;;;;;37.63;15.43;;;;;;;3.16;59.88;102584.00;4960210;28;124508;-69
2023/01/21 01:19:36;;;;;;;39.17;14.70;;;;;;;3.13;59.75;102590.09;4963744;28;119548;-70
2023/01/21 01:22:03;;;;;;;41.22;15.63;;;;;;;3.12;59.95;102593.56;4966489;28;119048;-69
2023/01/21 01:24:30;;;;;;;39.15;15.95;;;;;;;3.11;59.86;102602.28;4965368;28;124381;-69
2023/01/21 01:26:57;;;;;;;36.83;14.68;;;;;;;3.08;59.75;102615.31;4957787;28;123630;-69
2023/01/21 01:29:25;;;;;;;38.10;16.80;;;;;;;3.06;59.76;102614.41;4965256;28;119259;-70
2023/01/21 01:31:52;;;;;;;45.08;16.25;;;;;;;3.04;59.94;102631.84;4963109;28;119560;-69
2023/01/21 01:34:19;;;;;;;45.75;16.40;;;;;;;3.04;59.66;102642.31;4954755;28;124741;-70
2023/01/21 01:36:47;;;;;;;39.67;16.98;;;;;;;3.01;59.87;102637.03;4946684;28;124792;-70
2023/01/21 01:39:14;;;;;;;43.78;18.77;;;;;;;3.00;59.96;102648.38;4946342;28;118173;-70
2023/01/21 01:41:42;;;;;;;41.65;15.85;;;;;;;2.99;59.83;102649.22;4958961;28;119780;-69
2023/01/21 01:44:46;;;;;;;47.15;17.48;;;;;;;2.97;59.89;102651.78;4957971;28;123814;-70
2023/01/21 01:47:14;;;;;;;46.70;17.38;;;;;;;2.96;59.87;102654.38;4944806;28;123694;-69
2023/01/21 01:49:41;;;;;;;43.75;17.27;;;;;;;2.95;59.94;102657.88;4951203;28;120382;-69
2023/01/21 01:52:12;;;;;;;42.13;17.20;;;;;;;2.96;60.13;102654.38;4954154;28;119810;-69
2023/01/21 01:54:47;;;;;;;41.20;17.02;;;;;;;2.94;60.07;102657.00;4952533;28;124381;-69
2023/01/21 01:57:18;;;;;;;38.90;16.45;;;;;;;2.95;60.14;102657.88;4948991;28;124582;-69
2023/01/21 01:59:47;;;;;;;42.55;16.10;;;;;;;2.95;60.06;102663.09;4953601;28;119025;-69
2023/01/21 02:02:17;;;;;;;46.28;17.25;;;;;;;2.95;59.94;102668.34;4959648;28;119419;-69
2023/01/21 02:04:54;;;;;;;46.25;17.33;;;;;;;2.93;60.01;102671.78;4955614;28;123113;-70
2023/01/21 02:07:23;;;;;;;41.63;17.08;;;;;;;2.93;60.00;102682.25;4939243;28;125279;-69
2023/01/21 02:09:52;;;;;;;45.08;17.63;;;;;;;2.93;59.74;102677.03;4960802;28;119207;-69
2023/01/21 02:12:20;;;;;;;42.55;16.70;;;;;;;2.91;60.09;102683.97;4944893;28;119981;-69
2023/01/21 02:14:48;;;;;;;48.25;16.17;;;;;;;2.90;59.93;102666.53;4962450;28;124131;-69
2023/01/21 02:17:56;;;;;;;41.22;16.38;;;;;;;2.90;60.15;102674.38;4964194;28;123574;-69
2023/01/21 02:20:32;;;;;;;43.33;16.92;;;;;;;2.89;59.93;102675.22;4959279;28;119649;-69
2023/01/21 02:23:18;;;;;;;44.65;16.95;;;;;;;2.85;59.96;102678.66;4955307;28;120127;-69
2023/01/21 02:25:45;;;;;;;39.20;15.07;;;;;;;2.85;59.88;102683.88;4946485;28;124280;-69
2023/01/21 02:28:42;;;;;;;40.67;16.17;;;;;;;2.83;60.19;102690.84;4945405;28;124621;-69
2023/01/21 02:31:34;;;;;;;42.28;16.42;;;;;;;2.81;60.10;102697.78;4946899;28;120085;-69
2023/01/21 02:34:29;;;;;;;39.33;16.13;;;;;;;2.78;59.97;102700.34;4948003;28;119081;-69
2023/01/21 02:37:08;;;;;;;43.95;16.48;;;;;;;2.76;59.91;102696.81;4945524;28;124246;-69
2023/01/21 02:40:09;;;;;;;40.65;15.93;;;;;;;2.74;60.04;102706.38;4928818;28;125681;-69
2023/01/21 02:42:45;;;;;;;39.20;16.02;;;;;;;2.73;59.91;102704.59;4944937;28;121039;-69
2023/01/21 02:45:31;;;;;;;43.42;17.38;;;;;;;2.73;60.10;102709.81;4946385;28;120986;-69
2023/01/21 02:48:04;;;;;;;;;;;;;;;2.71;60.13;102711.53;4928716;28;122921;-69
2023/01/21 02:50:35;;;;;;;49.53;17.65;;;;;;;2.71;60.03;102714.16;4949637;28;124455;-69
2023/01/21 02:53:03;;;;;;;45.83;15.57;;;;;;;2.70;60.00;102720.25;4949181;28;119435;-69
2023/01/21 02:55:39;;;;;;;44.22;16.92;;;;;;;2.67;60.06;102725.44;4943992;28;119177;-70
2023/01/21 02:58:13;;;;;;;42.92;15.70;;;;;;;2.65;59.97;102728.00;4943587;28;124115;-69
2023/01/21 03:01:30;;;;;;;42.20;15.88;;;;;;;2.63;60.14;102728.84;4944751;28;123735;-69
2023/01/21 03:04:03;;;;;;;41.83;16.45;;;;;;;2.62;59.95;102733.19;4920867;28;118609;-69
2023/01/21 03:06:47;;;;;;;43.45;15.80;;;;;;;2.61;60.10;102746.25;4942336;28;118723;-69
2023/01/21 03:09:27;;;;;;;40.05;15.95;;;;;;;2.58;60.10;102735.72;4935430;28;124480;-69
2023/01/21 03:12:09;;;;;;;40.85;14.52;;;;;;;2.57;60.06;102736.59;4943893;28;124478;-69
2023/01/21 03:18:36;;;;;;;41.35;16.13;;;;;;;2.55;60.13;102746.13;4947433;28;118778;-69
2023/01/21 03:21:07;;;;;;;43.53;16.35;;;;;;;2.51;60.10;102746.06;4942572;28;123666;-69
2023/01/21 03:23:42;;;;;;;45.03;16.23;;;;;;;2.50;60.26;102744.28;4947473;28;125350;-69
2023/01/21 03:26:13;;;;;;;42.65;16.70;;;;;;;2.50;59.99;102754.75;4947884;28;119869;-69
2023/01/21 03:28:45;;;;;;;42.17;15.77;;;;;;;2.50;60.33;102754.75;4948495;28;119570;-69
2023/01/21 03:31:19;;;;;;;41.47;16.27;;;;;;;2.52;60.17;102762.63;4946962;28;124523;-69
2023/01/21 03:33:50;;;;;;;42.70;16.02;;;;;;;2.52;60.14;102763.53;4950031;28;123910;-69
2023/01/21 03:36:36;;;;;;;42.45;16.83;;;;;;;2.53;60.32;102770.50;4947704;28;120939;-69
2023/01/21 03:39:14;;;;;;;44.40;15.80;;;;;;;2.51;60.42;102767.00;4949327;28;120069;-69
2023/01/21 03:41:41;;;;;;;36.38;15.38;;;;;;;2.50;59.93;102775.69;4948880;28;124476;-69
2023/01/21 03:44:09;;;;;;;46.17;16.15;;;;;;;2.48;60.06;102777.38;4949124;28;123910;-69
2023/01/21 03:46:43;;;;;;;42.60;16.88;;;;;;;2.46;60.08;102781.69;4948353;28;119920;-69
2023/01/21 03:49:20;;;;;;;44.80;16.77;;;;;;;2.45;60.14;102777.34;4947956;28;117961;-69
2023/01/21 03:51:54;;;;;;;44.38;16.50;;;;;;;2.44;60.24;102775.56;4954590;28;124029;-69
2023/01/21 03:54:21;;;;;;;43.50;16.00;;;;;;;2.44;60.24;102777.31;4960562;28;125241;-69
2023/01/21 03:56:48;;;;;;;40.88;16.60;;;;;;;2.44;60.05;102785.16;4963276;28;118424;-69
2023/01/21 03:59:15;;;;;;;45.83;16.38;;;;;;;2.44;60.30;102779.91;4967925;28;119068;-69
2023/01/21 04:01:43;;;;;;;40.35;15.68;;;;;;;2.44;60.19;102786.03;4946604;28;122942;-70
2023/01/21 04:04:10;;;;;;;42.58;16.35;;;;;;;2.43;60.31;102784.28;4966463;28;123663;-69
2023/01/21 04:06:37;;;;;;;42.55;15.95;;;;;;;2.42;60.15;102782.50;4962121;28;118293;-69
2023/01/21 04:09:06;;;;;;;40.53;14.80;;;;;;;2.43;59.99;102786.91;4958158;28;121149;-69
2023/01/21 04:11:33;;;;;;;37.38;15.02;;;;;;;2.42;60.13;102787.72;4962212;28;124630;-69
2023/01/21 04:14:00;;;;;;;39.88;14.98;;;;;;;2.43;60.03;102794.75;4963765;28;123507;-69
2023/01/21 04:16:28;;;;;;;38.58;15.07;;;;;;;2.43;60.02;102799.97;4964459;28;119548;-69
2023/01/21 04:18:55;;;;;;;35.13;14.00;;;;;;;2.41;60.19;102801.66;4960832;28;117651;-70
2023/01/21 04:21:22;;;;;;;46.30;15.55;;;;;;;2.42;60.30;102798.19;4967660;28;124146;-70
2023/01/21 04:23:49;;;;;;;39.70;15.68;;;;;;;2.42;60.03;102800.81;4964562;28;124145;-70
2023/01/21 04:26:16;;;;;;;36.42;14.52;;;;;;;2.42;60.03;102803.41;4945304;28;121366;-70
2023/01/21 04:28:43;;;;;;;40.53;15.00;;;;;;;2.43;59.97;102805.19;4959357;28;119603;-70
2023/01/21 04:31:11;;;;;;;39.55;14.07;;;;;;;2.43;60.00;102812.13;4963064;28;123468;-70
2023/01/21 04:33:38;;;;;;;43.13;15.13;;;;;;;2.41;60.09;102812.13;4958363;28;124312;-70
2023/01/21 04:36:05;;;;;;;36.75;14.65;;;;;;;2.41;60.00;102819.97;4967280;28;119002;-70
2023/01/21 04:38:32;;;;;;;42.50;16.50;;;;;;;2.40;60.10;102823.44;4959512;28;120400;-69
2023/01/21 04:40:59;;;;;;;36.92;13.60;;;;;;;2.37;60.16;102815.50;4958603;28;126336;-70
2023/01/21 04:43:26;;;;;;;37.28;14.98;;;;;;;2.37;60.09;102818.13;4964012;28;123444;-70
2023/01/21 04:45:53;;;;;;;41.38;14.68;;;;;;;2.36;59.97;102819.00;4959404;28;119584;-70
2023/01/21 04:48:20;;;;;;;42.55;14.65;;;;;;;2.35;60.17;102817.22;4963035;28;121256;-70
2023/01/21 04:50:47;;;;;;;38.55;14.50;;;;;;;2.35;60.13;102817.22;4964044;28;123453;-70
2023/01/21 04:53:14;;;;;;;36.05;13.98;;;;;;;2.34;60.18;102820.69;4963433;28;122656;-70
2023/01/21 04:55:41;;;;;;;38.22;14.38;;;;;;;2.34;60.19;102820.69;4967554;28;119357;-70
2023/01/21 04:58:08;;;;;;;44.53;15.77;;;;;;;2.34;60.29;102816.34;4981404;28;117220;-69
2023/01/21 05:00:35;;;;;;;41.75;15.32;;;;;;;2.35;60.11;102811.97;4979373;28;123560;-69
2023/01/21 05:03:03;;;;;;;35.83;13.63;;;;;;;2.34;60.21;102820.69;4964643;28;124126;-69
2023/01/21 05:05:30;;;;;;;36.67;14.07;;;;;;;2.34;60.11;102825.94;4964061;28;119650;-69
2023/01/21 05:07:57;;;;;;;37.78;14.35;;;;;;;2.33;60.13;102818.91;4960677;28;119229;-70
2023/01/21 05:10:24;;;;;;;42.45;15.02;;;;;;;2.34;60.08;102837.25;4962845;28;125217;-69
2023/01/21 05:12:51;;;;;;;42.38;15.10;;;;;;;2.32;60.00;102833.72;4958555;28;124965;-69
2023/01/21 05:15:18;;;;;;;35.78;13.32;;;;;;;2.31;60.01;102836.31;4934955;28;119077;-70
2023/01/21 05:17:45;;;;;;;39.20;14.68;;;;;;;2.28;59.95;102837.13;4965272;28;119979;-69
2023/01/21 05:20:12;;;;;;;38.10;15.02;;;;;;;2.27;59.87;102850.16;4963602;28;124102;-70
2023/01/21 05:22:40;;;;;;;44.95;14.77;;;;;;;2.25;60.01;102855.34;4964110;28;124636;-69
2023/01/21 05:25:07;;;;;;;40.38;14.95;;;;;;;2.24;59.80;102860.53;4960646;28;120113;-70
2023/01/21 05:27:34;;;;;;;37.80;13.90;;;;;;;2.22;60.04;102847.44;4962883;28;119437;-70
2023/01/21 05:30:02;;;;;;;38.60;15.57;;;;;;;2.22;60.08;102859.63;4962922;28;123890;-70
2023/01/21 05:32:29;;;;;;;42.13;17.92;;;;;;;2.22;60.11;102857.00;4965877;28;123730;-70
2023/01/21 05:34:56;;;;;;;51.83;18.75;;;;;;;2.22;60.05;102862.25;4965319;28;119100;-70
2023/01/21 05:37:23;;;;;;;36.58;17.40;;;;;;;2.20;60.08;102863.94;4963993;28;119805;-70
2023/01/21 05:39:50;;;;;;;34.45;16.08;;;;;;;2.20;60.40;102864.81;4957321;28;122933;-69
2023/01/21 05:42:17;;;;;;;39.08;18.40;;;;;;;2.20;60.07;102863.94;4955886;28;124436;-69
2023/01/21 05:44:44;;;;;;;42.30;17.92;;;;;;;2.20;60.27;102863.94;4965545;28;119088;-69
2023/01/21 05:47:12;;;;;;;47.67;18.40;;;;;;;2.21;60.29;102876.19;4964274;28;118827;-69
2023/01/21 05:49:39;;;;;;;41.50;17.73;;;;;;;2.22;60.14;102877.94;4962511;28;124454;-69
2023/01/21 05:52:06;;;;;;;44.63;17.67;;;;;;;2.21;60.36;102876.19;4960724;28;123972;-70
2023/01/21 05:54:33;;;;;;;44.50;18.40;;;;;;;2.21;60.40;102876.19;4966992;28;120009;-70
2023/01/21 05:57:00;;;;;;;37.88;17.05;;;;;;;2.21;60.10;102873.56;4952775;28;119528;-70
2023/01/21 05:59:27;;;;;;;43.90;16.92;;;;;;;2.19;60.08;102878.75;4959423;28;124030;-69
2023/01/21 06:01:54;;;;;;;42.70;18.05;;;;;;;2.20;60.19;102890.09;4957416;28;124679;-70
2023/01/21 06:04:27;;;;;;;44.55;17.13;;;;;;;2.18;60.15;102883.94;4965000;28;120255;-70
2023/01/21 06:06:54;;;;;;;44.70;17.58;;;;;;;2.18;60.27;102891.78;4962593;28;120082;-70
2023/01/21 06:09:21;;;;;;;42.55;17.35;;;;;;;2.17;60.10;102890.00;4963815;28;124552;-70
2023/01/21 06:11:48;;;;;;;43.10;16.38;;;;;;;2.17;60.31;102896.13;4962978;28;124124;-70
2023/01/21 06:14:15;;;;;;;39.15;17.05;;;;;;;2.20;60.45;102905.78;4959685;28;119633;-70
2023/01/21 06:16:42;;;;;;;37.45;16.00;;;;;;;2.22;60.25;102901.47;4954254;28;118802;-69
2023/01/21 06:19:09;;;;;;;39.17;16.58;;;;;;;2.23;60.22;102906.72;4960190;28;122989;-70
2023/01/21 06:21:36;;;;;;;43.83;18.60;;;;;;;2.23;60.33;102911.09;4962020;28;123821;-70
2023/01/21 06:24:04;;;;;;;38.85;16.65;;;;;;;2.22;60.37;102915.41;4960363;28;119131;-70
2023/01/21 06:26:33;;;;;;;48.40;19.40;;;;;;;2.21;60.12;102915.41;4962289;28;119129;-68
2023/01/21 06:29:00;;;;;;;43.47;18.25;;;;;;;2.18;60.25;102918.78;4955518;28;123915;-69
2023/01/21 06:31:27;;;;;;;44.70;18.50;;;;;;;2.17;60.38;102921.38;4959616;28;123471;-69
2023/01/21 06:33:54;;;;;;;41.10;16.80;;;;;;;2.14;60.29;102928.28;4962952;28;118839;-70
2023/01/21 06:36:21;;;;;;;43.20;16.50;;;;;;;2.13;60.05;102936.13;4964169;28;119073;-68
2023/01/21 06:38:48;;;;;;;41.70;17.42;;;;;;;2.13;60.26;102931.78;4966381;28;123880;-69
2023/01/21 06:41:15;;;;;;;44.78;17.67;;;;;;;2.10;60.40;102942.16;4963577;28;124080;-70
2023/01/21 06:43:42;;;;;;;39.25;17.80;;;;;;;2.11;60.29;102946.53;4966234;28;118737;-70
2023/01/21 06:46:10;;;;;;;45.67;18.83;;;;;;;2.09;60.25;102944.72;4961177;28;118832;-68
2023/01/21 06:48:37;;;;;;;38.53;16.75;;;;;;;2.08;60.13;102946.47;4964989;28;123917;-69
2023/01/21 06:51:04;;;;;;;41.25;17.80;;;;;;;2.07;60.28;102952.56;4963856;28;124199;-69
2023/01/21 06:53:31;;;;;;;37.80;15.38;;;;;;;2.06;60.36;102956.00;4962194;28;120163;-69
2023/01/21 06:55:58;;;;;;;42.83;17.58;;;;;;;2.05;60.25;102964.66;4961121;28;118739;-69
2023/01/21 06:58:25;;;;;;;42.53;17.42;;;;;;;2.05;60.29;102964.66;4964158;28;124671;-69
2023/01/21 07:00:55;;;;;;;43.33;17.15;;;;;;;2.06;60.37;102963.84;4963656;28;123948;-69
2023/01/21 07:03:22;;;;;;;42.33;19.10;;;;;;;2.07;60.45;102968.22;4959762;28;119392;-69
2023/01/21 07:05:50;;;;;;;50.22;18.20;;;;;;;2.08;60.33;102967.38;4957580;28;118992;-70
2023/01/21 07:08:17;;;;;;;45.28;18.73;;;;;;;2.07;60.04;102978.69;4956376;28;125789;-69
2023/01/21 07:10:44;;;;;;;50.85;18.75;;;;;;;2.07;60.71;102983.91;4963177;28;123648;-70
2023/01/21 07:13:13;;;;;;;44.15;18.55;;;;;;;2.06;60.67;102987.34;4960966;28;120009;-69
2023/01/21 07:15:40;;;;;;;48.20;18.52;;;;;;;2.08;60.53;102996.13;4962435;28;118443;-69
2023/01/21 07:18:08;;;;;;;44.97;19.98;;;;;;;2.08;60.66;102996.13;4957789;28;123384;-70
2023/01/21 07:20:35;;;;;;;49.55;20.48;;;;;;;2.08;60.62;103001.34;4960287;28;124183;-69
2023/01/21 07:23:02;;;;;;;47.42;19.85;;;;;;;2.10;60.92;102997.03;4961706;28;119315;-70
2023/01/21 07:25:31;;;;;;;50.85;20.17;;;;;;;2.12;60.69;102997.09;4955568;28;119858;-69
2023/01/21 07:27:58;;;;;;;52.97;21.08;;;;;;;2.14;60.73;103001.50;4962467;28;124664;-70
2023/01/21 07:30:25;;;;;;;48.17;20.02;;;;;;;2.16;60.75;103008.50;4958410;28;123777;-69
2023/01/21 07:32:52;;;;;;;57.38;21.67;;;;;;;2.18;60.99;103012.03;4960082;28;119696;-70
2023/01/21 07:35:19;;;;;;;54.45;21.00;;;;;;;2.18;60.81;103010.28;4961547;28;118989;-69
2023/01/21 07:37:46;;;;;;;52.65;20.15;;;;;;;2.20;60.68;103015.56;4960985;28;124028;-69
2023/01/21 07:40:13;;;;;;;56.65;21.00;;;;;;;2.20;60.76;103015.56;4961773;28;123745;-70
2023/01/21 07:42:40;;;;;;;68.97;22.33;;;;;;;2.20;61.25;103020.78;4955040;28;120748;-70
2023/01/21 07:45:08;;;;;;;62.95;21.08;;;;;;;2.20;60.78;103026.03;4955367;28;120590;-69
2023/01/21 07:47:35;;;;;;;57.67;22.17;;;;;;;2.19;60.94;103035.59;4953238;28;124182;-70
2023/01/21 07:50:07;;;;;;;54.67;21.95;;;;;;;2.20;61.01;103041.72;4964032;28;124155;-70
2023/01/21 07:52:34;;;;;;;56.10;21.35;;;;;;;2.20;61.19;103036.47;4959923;28;119552;-70
2023/01/21 07:55:01;;;;;;;49.05;21.67;;;;;;;2.20;61.05;103044.31;4958136;28;119418;-69
2023/01/21 07:57:29;;;;;;;67.95;22.52;;;;;;;2.20;61.18;103057.38;4960852;28;124066;-70
2023/01/21 07:59:56;;;;;;;57.90;20.90;;;;;;;2.20;61.15;103052.16;4961213;28;124525;-70
2023/01/21 08:02:23;;;;;;;49.92;19.40;;;;;;;2.24;61.17;103059.22;4958776;28;119367;-70
2023/01/21 08:04:50;;;;;;;59.35;21.85;;;;;;;2.26;61.21;103060.16;4962564;28;118477;-70
2023/01/21 08:07:18;;;;;;;54.85;22.38;;;;;;;2.27;61.13;103059.31;4960615;28;123120;-69
2023/01/21 08:09:45;;;;;;;54.88;21.63;;;;;;;2.28;61.31;103066.31;4962956;28;123383;-69
2023/01/21 08:12:12;;;;;;;54.17;21.48;;;;;;;2.28;61.39;103082.91;4959133;28;119371;-69
2023/01/21 08:14:39;;;;;;;53.20;20.88;;;;;;;2.30;61.38;103085.56;4957358;28;120057;-69
2023/01/21 08:17:06;;;;;;;59.58;22.30;;;;;;;2.31;61.27;103082.09;4950960;28;122956;-69
2023/01/21 08:19:33;;;;;;;45.20;19.65;;;;;;;2.33;61.54;103096.06;4958101;28;124055;-70
2023/01/21 08:22:00;;;;;;;62.35;22.23;;;;;;;2.34;61.58;103100.47;4964911;28;120062;-69
2023/01/21 08:24:27;;;;;;;57.35;20.83;;;;;;;2.35;61.30;103104.84;4968062;28;119018;-70
2023/01/21 08:26:58;;;;;;;67.30;23.88;;;;;;;2.38;61.64;103115.38;4963577;28;123829;-68
2023/01/21 08:29:25;;;;;;;64.20;22.58;;;;;;;2.39;61.52;103117.13;4966847;28;124006;-68
2023/01/21 08:31:53;;;;;;;57.72;21.33;;;;;;;2.40;61.63;103124.16;4966353;28;120044;-68
2023/01/21 08:34:20;;;;;;;63.78;22.90;;;;;;;2.42;61.99;103125.06;4965526;28;120143;-68
2023/01/21 08:36:47;;;;;;;57.40;20.35;;;;;;;2.43;61.70;103119.00;4961044;28;124595;-68
2023/01/21 08:39:15;;;;;;;52.42;19.75;;;;;;;2.46;61.71;103124.31;4955448;28;123892;-68
2023/01/21 08:41:43;;;;;;;56.78;21.42;;;;;;;2.48;61.78;103122.59;4955733;28;120143;-69
2023/01/21 08:44:10;;;;;;;61.95;21.27;;;;;;;2.52;61.81;103134.94;4950105;28;120250;-68
2023/01/21 08:46:37;;;;;;;65.40;21.63;;;;;;;2.56;61.81;103124.53;4947982;28;123606;-68
2023/01/21 08:49:05;;;;;;;69.65;22.40;;;;;;;2.59;61.85;103135.09;4950654;28;124152;-68
2023/01/21 08:51:32;;;;;;;59.35;19.45;;;;;;;2.63;61.89;103136.94;4947624;28;117829;-68
2023/01/21 08:54:00;;;;;;;61.90;21.40;;;;;;;2.66;62.08;103137.03;4949217;28;118920;-68
2023/01/21 08:56:27;;;;;;;68.28;23.17;;;;;;;2.71;61.96;103143.22;4948616;28;124018;-68
2023/01/21 08:58:55;;;;;;;85.70;24.25;;;;;;;2.75;62.15;103146.81;4946215;28;123547;-68
2023/01/21 09:01:24;;;;;;;59.92;21.42;;;;;;;2.78;61.95;103137.31;4940847;28;119599;-68
2023/01/21 09:03:56;;;;;;;57.42;20.48;;;;;;;2.80;62.02;103151.31;4948666;28;118717;-67
2023/01/21 09:06:25;;;;;;;58.78;20.58;;;;;;;2.84;61.92;103147.91;4946846;28;124054;-71
2023/01/21 09:08:53;;;;;;;62.78;21.20;;;;;;;2.86;62.02;103148.88;4952651;28;123991;-68
2023/01/21 09:11:21;;;;;;;58.47;21.50;;;;;;;2.88;62.03;103152.41;4952038;28;119664;-68
2023/01/21 09:13:48;;;;;;;60.55;22.02;;;;;;;2.91;61.92;103149.84;4962042;28;119206;-69
2023/01/21 09:16:18;;;;;;;56.22;21.23;;;;;;;2.95;62.01;103144.69;4958255;28;123417;-68
2023/01/21 09:18:46;;;;;;;59.55;21.33;;;;;;;2.98;61.94;103150.00;4963382;28;123511;-69
2023/01/21 09:21:14;;;;;;;56.75;20.98;;;;;;;3.00;61.95;103148.31;4961052;28;120518;-69
2023/01/21 09:23:43;;;;;;;53.83;20.00;;;;;;;3.04;62.04;103144.91;4959105;28;119149;-68
2023/01/21 09:26:17;;;;;;;54.22;21.38;;;;;;;3.06;62.05;103151.06;4959524;28;124067;-68
2023/01/21 09:28:50;;;;;;;53.90;19.67;;;;;;;3.08;62.07;103154.59;4958716;28;123913;-68
2023/01/21 09:31:20;;;;;;;52.22;20.05;;;;;;;3.12;62.17;103159.03;4940269;28;119244;-68
2023/01/21 09:33:50;;;;;;;51.03;19.00;;;;;;;3.14;61.96;103153.84;4961102;28;118775;-68
2023/01/21 09:36:20;;;;;;;48.92;19.80;;;;;;;3.20;62.25;103165.38;4966772;28;126089;-68
2023/01/21 09:38:49;;;;;;;47.28;18.27;;;;;;;3.26;62.36;103162.88;4952503;28;121809;-69
2023/01/21 09:41:28;;;;;;;48.00;19.52;;;;;;;3.34;61.97;103164.78;4965194;28;119191;-68
2023/01/21 09:44:13;;;;;;;58.22;19.90;;;;;;;3.41;62.20;103166.69;4961351;28;119250;-69
2023/01/21 09:47:25;;;;;;;51.42;19.88;;;;;;;3.47;62.26;103172.94;4956208;28;124174;-69
2023/01/21 09:49:55;;;;;;;67.78;19.95;;;;;;;3.55;62.24;103170.50;4961467;28;123057;-69
2023/01/21 09:52:42;;;;;;;52.55;20.00;;;;;;;3.62;62.18;103172.41;4954665;28;121280;-69
2023/01/21 09:55:18;;;;;;;50.97;19.73;;;;;;;3.69;61.95;103184.78;4959414;28;119628;-69
2023/01/21 09:57:58;;;;;;;48.17;17.70;;;;;;;3.75;61.82;103181.41;4959862;28;124093;-69
2023/01/21 10:00:53;;;;;;;46.42;18.15;;;;;;;3.85;62.14;103187.72;4957006;28;123670;-69
2023/01/21 10:03:27;;;;;;;49.35;18.52;;;;;;;3.93;62.05;103178.28;4966103;28;119273;-69
2023/01/21 10:06:04;;;;;;;57.35;18.88;;;;;;;4.01;62.04;103187.19;4959745;28;118410;-69
2023/01/21 10:08:36;;;;;;;45.13;17.63;;;;;;;4.07;61.80;103192.56;4950328;28;124103;-69
2023/01/21 10:11:09;;;;;;;51.97;18.50;;;;;;;4.09;61.41;103190.84;4951612;28;124326;-69
2023/01/21 10:14:00;;;;;;;45.17;17.95;;;;;;;4.12;61.73;103189.13;4954192;28;119863;-69
2023/01/21 10:16:37;;;;;;;49.72;19.40;;;;;;;4.16;61.66;103190.97;4956817;28;119944;-69
2023/01/21 10:19:08;;;;;;;48.70;18.38;;;;;;;4.21;61.63;103199.81;4946954;28;124567;-69
2023/01/21 10:21:49;;;;;;;48.47;18.73;;;;;;;4.26;61.75;103192.91;4947243;28;124855;-69
2023/01/21 10:24:24;;;;;;;53.67;18.38;;;;;;;4.32;61.74;103198.28;4947367;28;120057;-69
2023/01/21 10:26:52;;;;;;;52.25;19.02;;;;;;;4.37;61.62;103191.38;4945340;28;119273;-69
2023/01/21 10:29:23;;;;;;;51.90;17.90;;;;;;;4.43;61.71;103181.00;4944932;28;123979;-69
2023/01/21 10:31:58;;;;;;;48.95;17.65;;;;;;;4.47;61.30;103182.81;4954678;28;124534;-69
2023/01/21 10:34:30;;;;;;;52.45;17.52;;;;;;;4.52;61.35;103184.63;4959099;28;118857;-69
2023/01/21 10:37:12;;;;;;;41.50;16.95;;;;;;;4.56;61.41;103186.44;4949394;28;119781;-69
2023/01/21 10:39:55;;;;;;;44.40;16.90;;;;;;;4.61;61.21;103184.78;4944805;28;124565;-69
2023/01/21 10:42:44;;;;;;;46.55;17.65;;;;;;;4.66;61.21;103180.53;4945440;28;125286;-69
2023/01/21 10:45:20;;;;;;;37.90;16.38;;;;;;;4.75;61.39;103183.31;4954381;28;120597;-69
2023/01/21 10:48:04;;;;;;;40.97;15.60;;;;;;;4.84;61.25;103180.84;4941025;28;118637;-69
2023/01/21 10:50:50;;;;;;;42.67;14.82;;;;;;;4.93;61.27;103187.09;4957271;28;124087;-69
2023/01/21 10:53:22;;;;;;;39.85;16.10;;;;;;;5.00;61.32;103183.69;4950461;28;123780;-69
2023/01/21 10:55:55;;;;;;;38.15;15.02;;;;;;;5.06;61.23;103183.78;4945172;28;119177;-70
2023/01/21 10:58:36;;;;;;;38.22;14.60;;;;;;;5.12;60.92;103188.25;4957612;28;119265;-69
2023/01/21 11:01:18;;;;;;;39.08;14.52;;;;;;;5.16;60.59;103188.34;4964992;28;123372;-68
2023/01/21 11:03:49;;;;;;;35.10;14.40;;;;;;;5.16;60.68;103180.47;4951940;28;124048;-69
2023/01/21 11:06:19;;;;;;;37.88;15.27;;;;;;;5.18;60.53;103184.00;4944999;28;120505;-69
2023/01/21 11:08:51;;;;;;;34.67;14.68;;;;;;;5.19;60.52;103183.13;4959482;28;120579;-69
2023/01/21 11:11:28;;;;;;;37.42;13.75;;;;;;;5.20;60.30;103179.66;4960377;28;123902;-69
2023/01/21 11:13:55;;;;;;;34.55;14.05;;;;;;;5.24;60.25;103183.22;4962233;28;124645;-69
2023/01/21 11:16:43;;;;;;;40.75;15.43;;;;;;;5.26;60.07;103182.34;4944786;28;118471;-70
2023/01/21 11:19:25;;;;;;;32.63;13.82;;;;;;;5.28;59.92;103179.75;4960558;28;119308;-69
2023/01/21 11:21:59;;;;;;;36.78;15.07;;;;;;;5.31;59.77;103184.16;4961022;28;123960;-70
2023/01/21 11:24:28;;;;;;;40.47;15.52;;;;;;;5.31;59.49;103184.16;4958166;28;124252;-70
2023/01/21 11:26:58;;;;;;;43.20;16.33;;;;;;;5.30;59.73;103177.16;4954972;28;119606;-69
2023/01/21 11:29:36;;;;;;;34.92;15.20;;;;;;;5.30;59.81;103182.41;4956357;28;119638;-70